createdAt,value
2022-11-03T05:43:00.088Z,101509.91
2022-11-03T05:48:37.350Z,101503.31
2022-11-03T05:54:02.368Z,101499.19
2022-11-03T05:59:25.747Z,101497.38
2022-11-03T06:04:46.631Z,101508.34
2022-11-03T06:10:31.478Z,101506.25
2022-11-03T06:16:02.517Z,101512.44
2022-11-03T06:21:25.567Z,101526.47
2022-11-03T06:26:47.882Z,101533.06
2022-11-03T06:32:13.352Z,101519.28
2022-11-03T06:37:34.843Z,101514.91
2022-11-03T06:42:58.498Z,101503.59
2022-11-03T06:48:24.585Z,101512.16
2022-11-03T06:53:46.000Z,101515.41
2022-11-03T06:59:10.742Z,101506.66
2022-11-03T07:04:31.892Z,101497.69
2022-11-03T07:09:54.647Z,101484.13
2022-11-03T07:15:30.268Z,101483.19
2022-11-03T07:20:53.626Z,101482.41
2022-11-03T07:26:14.509Z,101484.13
2022-11-03T07:31:35.404Z,101484.78
2022-11-03T07:36:57.724Z,101476.13
2022-11-03T07:42:21.921Z,101483.16
2022-11-03T07:47:45.406Z,101472.47
2022-11-03T07:53:36.223Z,101465.59
2022-11-03T07:59:05.525Z,101470.53
2022-11-03T08:04:34.284Z,101458.69
2022-11-03T08:09:55.644Z,101447.97
2022-11-03T08:15:16.792Z,101451.56
2022-11-03T08:20:37.547Z,101438.63
2022-11-03T08:25:58.532Z,101432.81
2022-11-03T08:31:19.325Z,101431.56
2022-11-03T08:36:40.280Z,101424.69
2022-11-03T08:42:01.158Z,101414.03
2022-11-03T08:47:22.098Z,101406.88
2022-11-03T08:52:42.870Z,101389.41
2022-11-03T08:58:04.024Z,101400.09
2022-11-03T09:03:25.393Z,101386.00
2022-11-03T09:14:27.104Z,101365.06
2022-11-03T09:19:47.912Z,101352.13
2022-11-03T09:25:09.095Z,101345.66
2022-11-03T09:30:30.151Z,101344.44
2022-11-03T09:35:50.850Z,101339.88
2022-11-03T09:41:26.255Z,101329.09
2022-11-03T09:46:53.776Z,101323.34
2022-11-03T09:52:21.550Z,101324.91
2022-11-03T09:57:42.718Z,101313.44
2022-11-03T10:03:03.928Z,101297.88
2022-11-03T10:08:31.807Z,101290.72
2022-11-03T10:13:56.310Z,101287.47
2022-11-03T10:19:18.214Z,101276.69
2022-11-03T10:24:39.558Z,101265.91
2022-11-03T10:30:10.477Z,101257.09
2022-11-03T10:35:35.271Z,101251.47
2022-11-03T10:41:25.946Z,101239.38
2022-11-03T10:47:05.796Z,101234.50
2022-11-03T10:52:30.028Z,101228.41
2022-11-03T10:57:53.200Z,101220.09
2022-11-03T11:03:16.599Z,101215.19
2022-11-03T11:08:40.660Z,101207.25
2022-11-03T11:14:22.544Z,101196.09
2022-11-03T11:20:22.450Z,101182.22
2022-11-03T11:26:24.593Z,101161.28
2022-11-03T11:31:45.961Z,101154.16
2022-11-03T11:37:07.650Z,101147.97
2022-11-03T11:42:30.435Z,101142.88
2022-11-03T11:47:53.937Z,101130.59
2022-11-03T11:53:23.184Z,101119.97
2022-11-03T11:58:49.999Z,101110.50
2022-11-03T12:04:28.088Z,101101.84
2022-11-03T12:09:49.465Z,101101.41
2022-11-03T12:15:47.993Z,101097.72
2022-11-03T12:21:33.251Z,101089.44
2022-11-03T12:26:54.111Z,101081.00
2022-11-03T12:32:32.300Z,101076.75
2022-11-03T12:37:55.110Z,101068.78
2022-11-03T12:43:15.762Z,101066.78
2022-11-03T12:48:36.890Z,101064.13
2022-11-03T12:53:57.445Z,101060.41
2022-11-03T12:59:18.078Z,101049.31
2022-11-03T13:04:39.153Z,101047.28
2022-11-03T13:10:00.220Z,101040.72
2022-11-03T13:15:21.092Z,101038.00
2022-11-03T13:20:44.929Z,101019.16
2022-11-03T13:26:05.918Z,101018.84
2022-11-03T13:31:27.131Z,101006.78
2022-11-03T13:36:48.003Z,101001.94
2022-11-03T13:42:09.027Z,100994.69
2022-11-03T13:47:42.044Z,100988.56
2022-11-03T14:10:03.855Z,100937.66
2022-11-03T14:15:24.944Z,100924.97
2022-11-03T14:20:46.002Z,100926.06
2022-11-03T14:26:22.496Z,100920.31
2022-11-03T14:31:47.645Z,100912.56
2022-11-03T14:37:09.105Z,100907.91
2022-11-03T14:42:29.951Z,100911.56
2022-11-03T14:47:50.763Z,100911.13
2022-11-03T14:53:11.484Z,100907.97
2022-11-03T14:58:32.193Z,100888.59
2022-11-03T15:03:53.122Z,100875.09
2022-11-03T15:09:14.862Z,100865.91
2022-11-03T15:14:35.808Z,100848.19
2022-11-03T15:19:56.637Z,100829.50
2022-11-03T15:25:21.541Z,100825.53
2022-11-03T15:30:48.582Z,100818.09
2022-11-03T15:36:09.902Z,100808.97
2022-11-03T15:41:30.867Z,100803.06
2022-11-03T15:46:51.850Z,100795.25
2022-11-03T15:52:13.130Z,100785.63
2022-11-03T15:57:33.859Z,100781.72
2022-11-03T16:02:54.849Z,100780.03
2022-11-03T16:08:15.707Z,100770.91
2022-11-03T16:13:36.398Z,100756.66
2022-11-03T16:18:57.528Z,100758.06
2022-11-03T16:24:18.534Z,100738.88
2022-11-03T16:29:39.303Z,100729.84
2022-11-03T16:35:00.051Z,100708.97
2022-11-03T16:40:20.961Z,100699.97
2022-11-03T16:45:41.667Z,100693.56
2022-11-03T16:51:02.529Z,100695.25
2022-11-03T16:56:24.018Z,100693.66
2022-11-03T17:01:45.216Z,100687.94
2022-11-03T17:07:05.911Z,100679.47
2022-11-03T17:12:27.216Z,100675.22
2022-11-03T17:17:48.016Z,100667.78
2022-11-03T17:23:08.731Z,100657.69
2022-11-03T17:28:29.780Z,100645.84
2022-11-03T17:33:50.793Z,100637.28
2022-11-03T17:39:15.685Z,100631.28
2022-11-03T17:44:37.016Z,100625.56
2022-11-03T17:49:58.040Z,100608.53
2022-11-03T17:55:33.159Z,100605.78
2022-11-03T18:00:54.134Z,100600.56
2022-11-03T18:06:19.803Z,100591.22
2022-11-03T18:12:00.955Z,100574.09
2022-11-03T18:17:21.814Z,100557.91
2022-11-03T18:22:42.704Z,100557.13
2022-11-03T18:28:03.713Z,100539.91
2022-11-03T18:33:34.345Z,100534.78
2022-11-03T18:38:57.015Z,100525.06
2022-11-03T18:44:18.196Z,100511.00
2022-11-03T18:49:38.854Z,100497.41
2022-11-03T18:54:59.658Z,100490.06
2022-11-03T19:00:22.986Z,100476.03
2022-11-03T19:05:45.512Z,100451.91
2022-11-03T19:11:06.718Z,100425.53
2022-11-03T19:16:27.631Z,100418.63
2022-11-03T19:21:48.555Z,100408.50
2022-11-03T19:27:20.476Z,100381.81
2022-11-03T19:32:45.913Z,100379.09
2022-11-03T19:38:14.419Z,100368.59
2022-11-03T19:43:35.549Z,100355.53
2022-11-03T19:48:57.069Z,100353.06
2022-11-03T19:54:21.310Z,100331.78
2022-11-03T19:59:43.948Z,100336.22
2022-11-03T20:05:05.001Z,100322.44
2022-11-03T20:10:25.492Z,100322.44
2022-11-03T20:15:46.846Z,100325.00
2022-11-03T20:21:14.365Z,100316.09
2022-11-03T20:26:35.960Z,100313.28
2022-11-03T20:31:56.792Z,100302.84
2022-11-03T20:37:19.597Z,100297.31
2022-11-03T20:42:40.741Z,100296.69
2022-11-03T20:48:02.245Z,100290.50
2022-11-03T20:53:25.636Z,100273.22
2022-11-03T20:58:49.102Z,100266.03
2022-11-03T21:04:15.537Z,100258.63
2022-11-03T21:09:36.531Z,100263.66
2022-11-03T21:15:15.777Z,100265.91
2022-11-03T21:20:36.686Z,100271.63
2022-11-03T21:25:57.794Z,100251.91
2022-11-03T21:31:18.795Z,100251.66
2022-11-03T21:36:39.663Z,100245.38
2022-11-03T21:42:18.978Z,100238.41
2022-11-03T21:47:59.720Z,100233.09
2022-11-03T21:53:20.971Z,100231.25
2022-11-03T21:58:42.579Z,100226.06
2022-11-03T22:04:03.921Z,100216.34
2022-11-03T22:09:26.867Z,100206.75
2022-11-03T22:15:06.197Z,100200.50
2022-11-03T22:20:45.568Z,100193.44
